Latest Weather Observations for White Cliffs AWS

IDN60801

Issued at 4:32 pm EDT Thursday 21 March 2019 (issued every 10 minutes, with the page automatically refreshed every 10 minutes)

About weather observations | Map of weather stations | Latest weather observations for NSW | Other Formats
Station Details ID: 046129 Name: WHITE CLIFFS AWS Lat: -30.85 Lon: 143.07 Height: 158.0 m
Data from the previous 72 hours. | See also: Recent months at White Cliffs AWS
Date/Time
EDT
Temp
°C
App
Temp
°C
Dew
Point
°C
Rel
Hum
%
Delta-T
°C
Wind Press
QNH
hPa
Press
MSL
hPa
Rain since
9am
mm
Dir  Spd
km/h
Gust
km/h
Spd
kts
Gust
kts
21/04:30pm 37.8 33.2 3.5 12 18.3 S 17 32 9 17 1010.4 1009.5 0.0
21/04:00pm 37.5 34.9 3.3 12 18.2 SE 6 19 3 10 1010.5 1009.6 0.0
21/03:30pm 36.9 32.1 2.8 12 17.9 SE 17 26 9 14 1010.8 1009.9 0.0
21/03:00pm 36.8 32.4 2.8 12 17.9 E 15 22 8 12 1011.0 1010.1 0.0
21/02:30pm 37.3 34.7 3.1 12 18.1 ENE 6 9 3 5 1011.6 1010.7 0.0
21/02:00pm 36.7 34.0 3.8 13 17.6 NNE 7 17 4 9 1012.0 1011.1 0.0
21/01:30pm 36.5 33.8 3.7 13 17.4 NNW 7 11 4 6 1012.7 1011.9 0.0
21/01:00pm 35.8 32.6 3.1 13 17.2 N 9 15 5 8 1013.1 1012.3 0.0
21/12:30pm 35.7 32.1 3.0 13 17.1 E 11 17 6 9 1013.4 1012.6 0.0
21/12:00pm 34.6 30.7 3.2 14 16.4 ENE 13 19 7 10 1013.7 1012.9 0.0
21/11:30am 33.5 29.4 2.4 14 15.9 ENE 13 19 7 10 1014.0 1013.2 0.0
21/11:00am 32.0 27.5 2.1 15 15.1 E 15 19 8 10 1014.2 1013.4 0.0
21/10:30am 31.0 26.5 2.3 16 14.5 E 15 20 8 11 1013.9 1013.1 0.0
21/10:00am 29.7 25.6 2.1 17 13.7 ESE 13 17 7 9 1013.8 1013.0 0.0
21/09:30am 28.2 25.2 1.7 18 13.0 ESE 7 13 4 7 1013.4 1012.6 0.0
21/09:00am 27.0 24.3 2.8 21 12.0 E 6 9 3 5 1013.3 1012.5 0.0
21/08:30am 24.2 22.5 1.8 23 10.7 CALM 0 6 0 3 1013.0 1012.2 0.0
21/08:00am 22.5 18.8 2.1 26 9.7 ESE 11 13 6 7 1012.7 1011.9 0.0
21/07:30am 21.4 17.6 1.7 27 9.2 E 11 13 6 7 1012.5 1011.7 0.0
21/07:00am 22.4 18.9 1.4 25 9.8 E 9 11 5 6 1012.3 1011.4 0.0
21/06:30am 24.8 21.5 2.3 23 10.9 ESE 9 11 5 6 1012.1 1011.2 0.0
21/06:00am 23.3 20.4 1.6 24 10.2 SE 6 9 3 5 1011.8 1010.9 0.0
21/05:30am 24.7 20.3 2.8 24 10.7 ESE 15 17 8 9 1011.5 1010.6 0.0
21/05:00am 24.8 20.4 2.9 24 10.7 ESE 15 17 8 9 1011.3 1010.4 0.0
21/04:30am 24.6 20.1 2.1 23 10.8 ESE 15 17 8 9 1011.2 1010.3 0.0
21/04:00am 25.6 21.2 2.9 23 11.2 ESE 15 17 8 9 1011.2 1010.3 0.0
21/03:30am 25.6 21.2 2.9 23 11.1 ESE 15 17 8 9 1011.3 1010.4 0.0
21/03:00am 24.8 20.6 1.7 22 11.0 ESE 13 15 7 8 1011.6 1010.7 0.0
21/02:30am 26.1 22.3 4.0 24 11.1 ESE 13 15 7 8 1011.6 1010.7 0.0
21/02:00am 25.0 21.4 3.0 24 10.8 E 11 13 6 7 1011.8 1010.9 0.0
21/01:30am 25.0 21.3 2.4 23 11.0 E 11 13 6 7 1012.0 1011.1 0.0
21/01:00am 25.5 21.8 2.2 22 11.3 ESE 11 11 6 6 1012.0 1011.1 0.0
21/12:30am 26.8 23.2 2.7 21 11.9 ESE 11 13 6 7 1012.1 1011.2 0.0
21/12:00am 27.3 23.7 3.1 21 12.1 E 11 13 6 7 1012.3 1011.4 0.0
 
Date/Time
EDT
Temp
°C
App
Temp
°C
Dew
Point
°C
Rel
Hum
%
Delta-T
°C
Wind Press
QNH
hPa
Press
MSL
hPa
Rain since
9am
mm
Dir  Spd
km/h
Gust
km/h
Spd
kts
Gust
kts
20/11:30pm 28.0 24.0 3.0 20 12.5 E 13 13 7 7 1012.2 1011.3 0.0
20/11:00pm 30.0 26.2 3.9 19 13.4 SE 13 15 7 8 1012.0 1011.1 0.0
20/10:30pm 31.4 27.3 4.2 18 14.2 SE 15 19 8 10 1011.9 1011.0 0.0
20/10:00pm 31.4 27.3 4.2 18 14.2 SE 15 17 8 9 1011.7 1010.8 0.0
20/09:30pm 32.0 27.4 3.9 17 14.6 SE 17 19 9 10 1011.6 1010.7 0.0
20/09:00pm 32.5 27.9 3.5 16 15.0 SE 17 19 9 10 1011.3 1010.4 0.0
20/08:30pm 32.9 28.9 2.9 15 15.4 SE 13 15 7 8 1010.9 1010.0 0.0
20/08:00pm 33.8 29.4 2.6 14 16.1 SSE 15 19 8 10 1010.7 1009.8 0.0
20/07:30pm 34.6 30.3 3.2 14 16.4 SSE 15 20 8 11 1010.6 1009.7 0.0
20/07:00pm 35.1 30.7 2.6 13 16.9 S 15 22 8 12 1010.5 1009.6 0.0
20/06:30pm 35.6 30.5 3.0 13 17.1 SSE 19 24 10 13 1010.4 1009.5 0.0
20/06:00pm 35.7 30.6 3.0 13 17.1 SSW 19 28 10 15 1010.5 1009.6 0.0
20/05:30pm 36.0 30.8 3.3 13 17.2 SE 20 26 11 14 1010.4 1009.5 0.0
20/05:00pm 37.1 32.0 3.0 12 18.0 SSE 19 28 10 15 1010.4 1009.5 0.0
20/04:30pm 36.4 31.6 2.5 12 17.7 SSE 17 30 9 16 1010.5 1009.6 0.0
20/04:00pm 36.5 30.9 3.7 13 17.5 SSE 22 33 12 18 1010.9 1010.0 0.0
20/03:30pm 36.3 32.0 3.5 13 17.4 SSW 15 22 8 12 1011.1 1010.2 0.0
20/03:00pm 35.4 31.2 3.9 14 16.7 SSW 15 22 8 12 1011.5 1010.6 0.0
20/02:30pm 35.9 30.3 3.2 13 17.2 S 22 35 12 19 1011.9 1011.0 0.0
20/02:00pm 35.6 31.1 4.0 14 16.8 SSW 17 24 9 13 1012.5 1011.7 0.0
20/01:30pm 34.6 30.7 3.2 14 16.4 SE 13 20 7 11 1013.0 1012.2 0.0
20/01:00pm 34.9 31.0 3.5 14 16.5 SW 13 26 7 14 1013.6 1012.8 0.0
20/12:30pm 34.0 31.3 2.8 14 16.1 SSW 6 11 3 6 1013.9 1013.1 0.0
20/12:00pm 33.5 30.9 3.3 15 15.7 NNE 6 11 3 6 1014.3 1013.5 0.0
20/11:30am 32.8 29.9 4.6 17 14.9 NE 9 15 5 8 1014.5 1013.7 0.0
20/11:00am 31.6 28.7 4.4 18 14.2 ENE 9 13 5 7 1014.6 1013.8 0.0
20/10:30am 29.9 26.7 3.0 18 13.6 E 9 13 5 7 1014.5 1013.7 0.0
20/10:00am 28.5 24.9 2.7 19 12.9 ESE 11 15 6 8 1014.2 1013.4 0.0
20/09:30am 27.6 24.9 2.6 20 12.4 E 6 9 3 5 1014.0 1013.2 0.0
20/09:00am 24.7 22.0 2.8 24 10.7 SSE 6 7 3 4 1013.7 1012.9 0.0
20/08:30am 22.5 19.7 3.1 28 9.4 S 7 9 4 5 1013.4 1012.6 0.0
20/08:00am 21.3 18.1 3.0 30 8.7 S 9 11 5 6 1013.0 1012.2 0.0
20/07:30am 21.2 17.2 3.0 30 8.7 S 13 15 7 8 1012.8 1012.0 0.0
20/07:00am 21.7 17.4 3.4 30 8.8 S 15 19 8 10 1012.4 1011.6 0.0
20/06:30am 21.5 17.5 2.7 29 8.9 SSW 13 15 7 8 1012.0 1011.1 0.0
20/06:00am 21.1 17.0 2.4 29 8.8 SSW 13 15 7 8 1011.7 1010.8 0.0
20/05:30am 21.0 18.8 1.3 27 9.1 ESE 2 7 1 4 1011.4 1010.5 0.0
20/05:00am 22.2 19.2 2.3 27 9.4 ENE 7 9 4 5 1011.2 1010.3 0.0
20/04:30am 23.7 20.5 3.1 26 10.0 E 9 9 5 5 1011.2 1010.3 0.0
20/04:00am 24.2 21.5 2.9 25 10.4 ENE 6 7 3 4 1011.4 1010.5 0.0
20/03:30am 25.6 22.9 3.6 24 10.9 E 7 11 4 6 1011.5 1010.6 0.0
20/03:00am 25.3 22.8 3.9 25 10.7 SSE 6 9 3 5 1011.8 1010.9 0.0
20/02:30am 24.3 20.6 2.5 24 10.5 S 11 11 6 6 1012.1 1011.2 0.0
20/02:00am 24.6 21.0 2.7 24 10.6 S 11 13 6 7 1012.2 1011.3 0.0
20/01:30am 25.6 21.2 2.9 23 11.1 S 15 15 8 8 1012.3 1011.4 0.0
20/01:00am 27.4 22.7 3.2 21 12.1 S 17 20 9 11 1012.5 1011.7 0.0
20/12:30am 26.7 22.8 3.2 22 11.7 S 13 17 7 9 1012.6 1011.8 0.0
20/12:00am 27.2 22.9 3.0 21 12.0 S 15 17 8 9 1012.6 1011.8 0.0
 
Date/Time
EDT
Temp
°C
App
Temp
°C
Dew
Point
°C
Rel
Hum
%
Delta-T
°C
Wind Press
QNH
hPa
Press
MSL
hPa
Rain since
9am
mm
Dir  Spd
km/h
Gust
km/h
Spd
kts
Gust
kts
19/11:30pm 27.3 22.8 2.4 20 12.3 SSW 15 15 8 8 1012.7 1011.9 0.0
19/11:00pm 27.3 24.0 2.4 20 12.3 SSW 9 11 5 6 1012.6 1011.8 0.0
19/10:30pm 27.1 23.1 0.8 18 12.6 SSW 11 17 6 9 1012.5 1011.7 0.0
19/10:00pm 29.1 25.4 2.4 18 13.3 SSE 11 13 6 7 1012.4 1011.6 0.0
19/09:30pm 29.4 25.2 1.8 17 13.6 SSE 13 13 7 7 1012.1 1011.2 0.0
19/09:00pm 30.3 27.0 2.5 17 14.0 SSE 9 11 5 6 1012.0 1011.1 0.0
19/08:30pm 30.8 27.6 3.0 17 14.1 SSE 9 11 5 6 1011.6 1010.7 0.0
19/08:00pm 32.1 28.1 3.1 16 14.9 SSE 13 17 7 9 1011.3 1010.4 0.0
19/07:30pm 32.9 28.2 2.9 15 15.4 S 17 24 9 13 1011.1 1010.2 0.0
19/07:00pm 33.4 28.0 2.3 14 15.9 S 20 24 11 13 1011.0 1010.1 0.0
19/06:30pm 34.8 28.4 1.2 12 17.0 SSW 24 30 13 16 1010.9 1010.0 0.0
19/06:00pm 34.3 29.0 3.0 14 16.3 S 20 32 11 17 1010.7 1009.8 0.0
19/05:30pm 34.4 28.2 2.0 13 16.6 S 24 35 13 19 1010.7 1009.8 0.0
19/05:00pm 34.4 30.6 4.0 15 16.1 SW 13 17 7 9 1010.7 1009.8 0.0
19/04:30pm 34.3 29.2 4.0 15 16.0 SW 20 26 11 14 1011.1 1010.2 0.0
19/04:00pm 34.0 30.7 4.6 16 15.7 SSW 11 30 6 16 1011.3 1010.4 0.0
19/03:30pm 34.3 29.4 4.0 15 16.0 SSE 19 28 10 15 1011.5 1010.6 0.0
19/03:00pm 34.4 28.1 4.0 15 16.1 S 26 37 14 20 1011.9 1011.0 0.0
19/02:30pm 34.9 27.6 2.4 13 16.8 S 30 41 16 22 1012.2 1011.3 0.0
19/02:00pm 34.8 28.4 3.4 14 16.5 SSE 26 35 14 19 1012.4 1011.6 0.0
19/01:30pm 36.1 29.7 3.3 13 17.3 S 26 39 14 21 1012.8 1012.0 0.0
19/01:00pm 33.9 28.9 4.6 16 15.6 S 20 35 11 19 1013.4 1012.6 0.0
19/12:30pm 33.6 29.7 5.2 17 15.2 S 15 28 8 15 1013.8 1013.0 0.0
19/12:00pm 33.2 30.3 6.5 19 14.6 S 11 20 6 11 1014.1 1013.3 0.0
19/11:30am 32.3 29.8 6.5 20 14.0 SW 9 13 5 7 1014.5 1013.7 0.0
19/11:00am 31.3 29.1 6.4 21 13.4 SSW 7 11 4 6 1014.7 1013.9 0.0
19/10:30am 29.7 27.7 7.0 24 12.3 SSW 7 11 4 6 1014.6 1013.8 0.0
19/10:00am 27.8 25.3 6.6 26 11.3 SSW 9 11 5 6 1014.7 1013.9 0.0
19/09:30am 26.6 24.0 6.1 27 10.7 SSW 9 11 5 6 1014.4 1013.6 0.0
19/09:00am 25.4 23.4 6.1 29 10.0 SW 6 7 3 4 1014.1 1013.3 0.0
19/08:30am 23.7 22.7 5.6 31 9.2 CALM 0 0 0 0 1013.8 1013.0 0.0
19/08:00am 22.4 21.3 4.9 32 8.7 CALM 0 0 0 0 1013.5 1012.7 0.0
19/07:30am 22.5 21.5 5.4 33 8.6 CALM 0 0 0 0 1013.2 1012.4 0.0
19/07:00am 22.8 20.7 5.7 33 8.7 W 6 9 3 5 1013.0 1012.2 0.0
19/06:30am 22.5 18.9 5.0 32 8.7 SSW 13 15 7 8 1012.7 1011.9 0.0
19/06:00am 22.9 19.7 5.3 32 8.9 S 11 13 6 7 1012.4 1011.6 0.0
19/05:30am 23.3 19.4 5.2 31 9.1 SSW 15 17 8 9 1012.3 1011.4 0.0
19/05:00am 23.1 19.4 4.6 30 9.2 SW 13 15 7 8 1012.1 1011.2 0.0
19/04:30am 22.9 19.5 3.9 29 9.3 SW 11 13 6 7 1012.0 1011.1 0.0
19/04:00am 23.2 20.1 3.7 28 9.6 SW 9 11 5 6 1012.1 1011.2 0.0
19/03:30am 23.6 20.7 4.5 29 9.5 SSW 9 9 5 5 1012.2 1011.3 0.0
19/03:00am 23.8 20.4 4.2 28 9.7 SSW 11 15 6 8 1012.4 1011.6 0.0
19/02:30am 24.0 20.7 4.4 28 9.8 SW 11 11 6 6 1012.5 1011.7 0.0
19/02:00am 24.3 20.9 4.1 27 10.1 SW 11 13 6 7 1012.7 1011.9 0.0
19/01:30am 26.0 24.0 6.1 28 10.4 S 6 6 3 3 1012.9 1012.1 0.0
19/01:00am 25.8 23.6 5.4 27 10.5 SSW 6 7 3 4 1013.0 1012.2 0.0
19/12:30am 26.4 25.1 5.9 27 10.7 E 2 6 1 3 1013.2 1012.4 0.0
19/12:00am 26.8 24.5 5.7 26 11.0 E 7 9 4 5 1013.3 1012.5 0.0
 
Date/Time
EDT
Temp
°C
App
Temp
°C
Dew
Point
°C
Rel
Hum
%
Delta-T
°C
Wind Press
QNH
hPa
Press
MSL
hPa
Rain since
9am
mm
Dir  Spd
km/h
Gust
km/h
Spd
kts
Gust
kts
18/11:30pm 27.8 24.3 5.4 24 11.7 SE 13 17 7 9 1013.3 1012.5 0.0
18/11:00pm 28.4 25.0 5.9 24 11.9 SSE 13 15 7 8 1013.5 1012.7 0.0
18/10:30pm 28.6 25.6 6.1 24 11.9 S 11 13 6 7 1013.5 1012.7 0.0
18/10:00pm 29.1 25.7 5.9 23 12.3 S 13 13 7 7 1013.4 1012.6 0.0
18/09:30pm 29.8 26.4 5.8 22 12.7 S 13 15 7 8 1013.1 1012.3 0.0
18/09:00pm 30.6 27.3 6.5 22 13.0 S 13 15 7 8 1012.7 1011.9 0.0
18/08:30pm 31.2 28.3 6.3 21 13.4 S 11 17 6 9 1012.3 1011.4 0.0
18/08:00pm 31.8 28.2 6.8 21 13.6 SSE 15 19 8 10 1012.0 1011.1 0.0
18/07:30pm 32.3 28.3 6.5 20 14.0 S 17 22 9 12 1011.7 1010.8 0.0
18/07:00pm 32.8 29.6 6.9 20 14.2 S 13 26 7 14 1011.6 1010.7 0.0
18/06:30pm 33.2 29.9 6.5 19 14.6 SE 13 19 7 10 1011.5 1010.6 0.0
18/06:00pm 33.4 29.6 7.4 20 14.4 S 17 24 9 13 1011.6 1010.7 0.0
18/05:30pm 33.8 29.5 7.0 19 14.8 SSW 19 28 10 15 1011.6 1010.7 0.0
18/05:00pm 33.6 29.3 6.8 19 14.8 SSE 19 32 10 17 1011.7 1010.8 0.0

Other formats

Comma delimited format used in spreadsheet applications
http://www.bom.gov.au/fwo/IDN60801/IDN60801.95699.axf

JavaScript Object Notation format (JSON) in row-major order
http://www.bom.gov.au/fwo/IDN60801/IDN60801.95699.json

Data quality

Most of these data are generated automatically and are frequently updated. Quality checks on data are not normally performed. It is possible for incorrect values to appear. Refer to information at About Latest Weather Observations and please check the disclaimer before using these data.